sensor_id;sensor_type;location;lat;lon;timestamp;pressure;altitude;pressure_sealevel;temperature;humidity
29197;BME280;62796;42.654;23.316;2023-05-23T00:01:34;94432.94;;;14.83;61.91
29197;BME280;62796;42.654;23.316;2023-05-23T00:04:04;94435.53;;;14.70;62.12
29197;BME280;62796;42.654;23.316;2023-05-23T00:06:29;94439.84;;;14.71;62.36
29197;BME280;62796;42.654;23.316;2023-05-23T00:08:55;94421.69;;;14.54;62.09
29197;BME280;62796;42.654;23.316;2023-05-23T00:11:22;94435.53;;;14.70;61.80
29197;BME280;62796;42.654;23.316;2023-05-23T00:13:51;94432.06;;;14.53;62.37
29197;BME280;62796;42.654;23.316;2023-05-23T00:16:18;94437.66;;;14.53;62.78
29197;BME280;62796;42.654;23.316;2023-05-23T00:18:43;94434.06;;;14.58;62.51
29197;BME280;62796;42.654;23.316;2023-05-23T00:21:10;94437.59;;;14.64;62.40
29197;BME280;62796;42.654;23.316;2023-05-23T00:23:38;94440.91;;;14.63;62.92
29197;BME280;62796;42.654;23.316;2023-05-23T00:26:06;94407.78;;;14.48;62.97
29197;BME280;62796;42.654;23.316;2023-05-23T00:28:32;94410.53;;;14.54;62.63
29197;BME280;62796;42.654;23.316;2023-05-23T00:30:57;94429.47;;;14.66;62.67
29197;BME280;62796;42.654;23.316;2023-05-23T00:33:23;94436.09;;;14.63;62.23
29197;BME280;62796;42.654;23.316;2023-05-23T00:35:48;94425.75;;;14.47;62.74
29197;BME280;62796;42.654;23.316;2023-05-23T00:38:15;94437.88;;;14.55;62.21
29197;BME280;62796;42.654;23.316;2023-05-23T00:40:40;94413.88;;;14.41;61.65
29197;BME280;62796;42.654;23.316;2023-05-23T00:43:06;94433.31;;;14.58;61.57
29197;BME280;62796;42.654;23.316;2023-05-23T00:45:32;94441.41;;;14.61;61.47
29197;BME280;62796;42.654;23.316;2023-05-23T00:47:58;94434.06;;;14.58;61.74
29197;BME280;62796;42.654;23.316;2023-05-23T00:50:24;94409.06;;;14.42;62.04
29197;BME280;62796;42.654;23.316;2023-05-23T00:52:54;94400.19;;;14.43;61.52
29197;BME280;62796;42.654;23.316;2023-05-23T00:55:22;94432.28;;;14.61;61.83
29197;BME280;62796;42.654;23.316;2023-05-23T00:57:49;94431.53;;;14.55;61.86
29197;BME280;62796;42.654;23.316;2023-05-23T01:00:16;94434.63;;;14.51;62.04
29197;BME280;62796;42.654;23.316;2023-05-23T01:02:46;94432.84;;;14.54;62.13
29197;BME280;62796;42.654;23.316;2023-05-23T01:05:13;94422.97;;;14.47;62.40
29197;BME280;62796;42.654;23.316;2023-05-23T01:07:44;94407.34;;;14.33;62.00
29197;BME280;62796;42.654;23.316;2023-05-23T01:10:12;94436.38;;;14.49;61.86
29197;BME280;62796;42.654;23.316;2023-05-23T01:16:26;94450.59;;;14.45;61.61
29197;BME280;62796;42.654;23.316;2023-05-23T01:29:52;94434.44;;;14.21;61.73
29197;BME280;62796;42.654;23.316;2023-05-23T01:32:18;94433.19;;;14.17;61.54
29197;BME280;62796;42.654;23.316;2023-05-23T01:34:47;94422.13;;;14.00;61.87
29197;BME280;62796;42.654;23.316;2023-05-23T01:37:15;94415.78;;;14.00;61.90
29197;BME280;62796;42.654;23.316;2023-05-23T01:39:43;94412.75;;;14.03;61.88
29197;BME280;62796;42.654;23.316;2023-05-23T01:42:09;94405.66;;;14.02;61.92
29197;BME280;62796;42.654;23.316;2023-05-23T01:44:35;94403.84;;;14.05;62.04
29197;BME280;62796;42.654;23.316;2023-05-23T01:47:03;94429.09;;;14.29;62.08
29197;BME280;62796;42.654;23.316;2023-05-23T01:49:30;94409.66;;;14.12;62.16
29197;BME280;62796;42.654;23.316;2023-05-23T01:51:57;94407.63;;;14.13;62.64
29197;BME280;62796;42.654;23.316;2023-05-23T01:54:23;94422.75;;;14.28;62.73
29197;BME280;62796;42.654;23.316;2023-05-23T01:56:49;94391.19;;;14.15;62.02
29197;BME280;62796;42.654;23.316;2023-05-23T01:59:15;94395.22;;;14.14;62.17
29197;BME280;62796;42.654;23.316;2023-05-23T02:01:40;94398.78;;;14.09;62.35
29197;BME280;62796;42.654;23.316;2023-05-23T02:04:06;94426.59;;;14.20;62.45
29197;BME280;62796;42.654;23.316;2023-05-23T02:06:31;94402.88;;;13.97;62.81
29197;BME280;62796;42.654;23.316;2023-05-23T02:08:57;94402.13;;;13.96;62.83
29197;BME280;62796;42.654;23.316;2023-05-23T02:11:22;94398.34;;;13.94;62.84
29197;BME280;62796;42.654;23.316;2023-05-23T02:13:48;94396.81;;;13.93;62.70
29197;BME280;62796;42.654;23.316;2023-05-23T02:16:13;94403.13;;;13.93;62.85
29197;BME280;62796;42.654;23.316;2023-05-23T02:18:39;94399.34;;;13.91;62.39
29197;BME280;62796;42.654;23.316;2023-05-23T02:21:04;94403.41;;;13.90;62.44
29197;BME280;62796;42.654;23.316;2023-05-23T02:23:30;94424.88;;;14.06;62.47
29197;BME280;62796;42.654;23.316;2023-05-23T02:25:55;94430.94;;;14.04;63.18
29197;BME280;62796;42.654;23.316;2023-05-23T02:28:21;94399.88;;;13.83;63.69
29197;BME280;62796;42.654;23.316;2023-05-23T02:30:46;94424.38;;;14.02;64.13
29197;BME280;62796;42.654;23.316;2023-05-23T02:33:12;94404.19;;;13.84;64.47
29197;BME280;62796;42.654;23.316;2023-05-23T02:35:38;94426.69;;;13.98;64.72
29197;BME280;62796;42.654;23.316;2023-05-23T02:38:04;94393.31;;;13.75;64.48
29197;BME280;62796;42.654;23.316;2023-05-23T02:40:29;94400.13;;;13.74;64.37
29197;BME280;62796;42.654;23.316;2023-05-23T02:42:55;94399.66;;;13.76;64.77
29197;BME280;62796;42.654;23.316;2023-05-23T02:45:22;94382.69;;;13.68;64.99
29197;BME280;62796;42.654;23.316;2023-05-23T02:47:47;94391.56;;;13.67;64.93
29197;BME280;62796;42.654;23.316;2023-05-23T02:50:13;94411.50;;;13.88;64.71
29197;BME280;62796;42.654;23.316;2023-05-23T02:52:38;94416.56;;;13.89;64.67
29197;BME280;62796;42.654;23.316;2023-05-23T02:55:04;94397.34;;;13.74;64.57
29197;BME280;62796;42.654;23.316;2023-05-23T02:57:30;94383.72;;;13.65;64.39
29197;BME280;62796;42.654;23.316;2023-05-23T02:59:55;94396.13;;;13.64;64.57
29197;BME280;62796;42.654;23.316;2023-05-23T03:02:21;94409.50;;;13.82;64.44
29197;BME280;62796;42.654;23.316;2023-05-23T03:04:46;94386.50;;;13.65;64.39
29197;BME280;62796;42.654;23.316;2023-05-23T03:07:12;94395.84;;;13.73;64.22
29197;BME280;62796;42.654;23.316;2023-05-23T03:09:39;94394.59;;;13.69;64.26
29197;BME280;62796;42.654;23.316;2023-05-23T03:12:05;94404.44;;;13.75;63.92
29197;BME280;62796;42.654;23.316;2023-05-23T03:14:31;94398.38;;;13.71;64.00
29197;BME280;62796;42.654;23.316;2023-05-23T03:16:56;94419.13;;;13.81;63.68
29197;BME280;62796;42.654;23.316;2023-05-23T03:19:22;94419.91;;;13.76;63.31
29197;BME280;62796;42.654;23.316;2023-05-23T03:21:48;94392.31;;;13.56;63.20
29197;BME280;62796;42.654;23.316;2023-05-23T03:24:15;94397.41;;;13.52;63.60
29197;BME280;62796;42.654;23.316;2023-05-23T03:26:40;94393.88;;;13.46;64.01
29197;BME280;62796;42.654;23.316;2023-05-23T03:29:06;94409.56;;;13.44;64.51
29197;BME280;62796;42.654;23.316;2023-05-23T03:31:31;94403.72;;;13.42;64.58
29197;BME280;62796;42.654;23.316;2023-05-23T03:33:57;94407.03;;;13.40;64.75
29197;BME280;62796;42.654;23.316;2023-05-23T03:36:22;94448.25;;;13.53;65.32
29197;BME280;62796;42.654;23.316;2023-05-23T03:38:51;94431.56;;;13.53;65.41
29197;BME280;62796;42.654;23.316;2023-05-23T03:41:17;94421.44;;;13.39;65.69
29197;BME280;62796;42.654;23.316;2023-05-23T03:43:42;94419.19;;;13.32;65.84
29197;BME280;62796;42.654;23.316;2023-05-23T03:46:08;94443.19;;;13.51;65.35
29197;BME280;62796;42.654;23.316;2023-05-23T03:48:33;94421.97;;;13.26;66.00
29197;BME280;62796;42.654;23.316;2023-05-23T03:50:59;94427.53;;;13.26;65.75
29197;BME280;62796;42.654;23.316;2023-05-23T03:53:24;94430.78;;;13.30;66.29
29197;BME280;62796;42.654;23.316;2023-05-23T03:55:50;94453.81;;;13.42;66.42
29197;BME280;62796;42.654;23.316;2023-05-23T03:58:18;94429.78;;;13.22;67.24
29197;BME280;62796;42.654;23.316;2023-05-23T04:00:44;94439.91;;;13.14;68.14
29197;BME280;62796;42.654;23.316;2023-05-23T04:03:10;94437.88;;;13.20;68.56
29197;BME280;62796;42.654;23.316;2023-05-23T04:05:38;94443.19;;;13.29;68.25
29197;BME280;62796;42.654;23.316;2023-05-23T04:08:04;94447.00;;;13.37;68.77
29197;BME280;62796;42.654;23.316;2023-05-23T04:10:29;94439.66;;;13.34;68.47
29197;BME280;62796;42.654;23.316;2023-05-23T04:12:55;94430.03;;;13.35;68.22
29197;BME280;62796;42.654;23.316;2023-05-23T04:15:21;94418.66;;;13.22;69.03
29197;BME280;62796;42.654;23.316;2023-05-23T04:17:46;94454.06;;;13.49;68.83
29197;BME280;62796;42.654;23.316;2023-05-23T04:20:11;94419.19;;;13.26;68.87
29197;BME280;62796;42.654;23.316;2023-05-23T04:22:37;94418.91;;;13.29;69.29
29197;BME280;62796;42.654;23.316;2023-05-23T04:25:03;94417.13;;;13.21;69.68
29197;BME280;62796;42.654;23.316;2023-05-23T04:27:29;94424.22;;;13.33;69.40
29197;BME280;62796;42.654;23.316;2023-05-23T04:29:55;94427.75;;;13.50;69.19
29197;BME280;62796;42.654;23.316;2023-05-23T04:32:22;94418.41;;;13.48;68.78
29197;BME280;62796;42.654;23.316;2023-05-23T04:34:48;94434.06;;;13.67;68.82
29197;BME280;62796;42.654;23.316;2023-05-23T04:37:14;94429.00;;;13.60;69.01
29197;BME280;62796;42.654;23.316;2023-05-23T04:39:39;94429.25;;;13.62;69.22
29197;BME280;62796;42.654;23.316;2023-05-23T04:42:05;94430.28;;;13.70;69.03
29197;BME280;62796;42.654;23.316;2023-05-23T04:44:31;94427.22;;;13.79;68.67
29197;BME280;62796;42.654;23.316;2023-05-23T04:46:57;94440.34;;;13.96;68.11
29197;BME280;62796;42.654;23.316;2023-05-23T04:49:23;94442.09;;;14.04;68.25
29197;BME280;62796;42.654;23.316;2023-05-23T04:51:49;94460.03;;;14.20;68.06
29197;BME280;62796;42.654;23.316;2023-05-23T04:54:15;94438.53;;;14.09;67.99
29197;BME280;62796;42.654;23.316;2023-05-23T04:56:40;94458.03;;;14.15;67.88
29197;BME280;62796;42.654;23.316;2023-05-23T04:59:06;94448.91;;;14.09;68.17
29197;BME280;62796;42.654;23.316;2023-05-23T05:01:41;94477.72;;;14.28;68.22
29197;BME280;62796;42.654;23.316;2023-05-23T05:04:08;94450.50;;;13.76;69.32
29197;BME280;62796;42.654;23.316;2023-05-23T05:06:33;94470.72;;;13.71;70.47
29197;BME280;62796;42.654;23.316;2023-05-23T05:08:59;94449.75;;;13.48;70.64
29197;BME280;62796;42.654;23.316;2023-05-23T05:11:25;94462.16;;;13.36;71.34
29197;BME280;62796;42.654;23.316;2023-05-23T05:13:51;94477.59;;;13.43;71.06
29197;BME280;62796;42.654;23.316;2023-05-23T05:16:16;94494.28;;;13.48;71.25
29197;BME280;62796;42.654;23.316;2023-05-23T05:18:42;94466.94;;;13.36;71.18
29197;BME280;62796;42.654;23.316;2023-05-23T05:21:07;94486.69;;;13.49;71.59
29197;BME280;62796;42.654;23.316;2023-05-23T05:23:33;94480.63;;;13.56;71.07
29197;BME280;62796;42.654;23.316;2023-05-23T05:25:58;94479.34;;;13.62;70.69
29197;BME280;62796;42.654;23.316;2023-05-23T05:28:24;94455.34;;;13.37;70.59
29197;BME280;62796;42.654;23.316;2023-05-23T05:30:50;94471.50;;;13.39;71.58
29197;BME280;62796;42.654;23.316;2023-05-23T05:33:21;94471.53;;;13.50;71.54
29197;BME280;62796;42.654;23.316;2023-05-23T05:35:52;94473.78;;;13.68;70.98
29197;BME280;62796;42.654;23.316;2023-05-23T05:38:18;94452.53;;;13.70;70.79
29197;BME280;62796;42.654;23.316;2023-05-23T05:40:43;94462.88;;;13.86;70.27
29197;BME280;62796;42.654;23.316;2023-05-23T05:43:09;94475.47;;;14.10;69.46
29197;BME280;62796;42.654;23.316;2023-05-23T05:45:35;94485.59;;;14.35;69.00
29197;BME280;62796;42.654;23.316;2023-05-23T05:48:01;94472.16;;;14.39;68.43
29197;BME280;62796;42.654;23.316;2023-05-23T05:50:26;94465.06;;;14.38;68.26
29197;BME280;62796;42.654;23.316;2023-05-23T05:52:52;94480.22;;;14.48;68.23
29197;BME280;62796;42.654;23.316;2023-05-23T05:55:17;94501.44;;;14.68;67.47
29197;BME280;62796;42.654;23.316;2023-05-23T05:57:43;94495.81;;;14.73;67.52
29197;BME280;62796;42.654;23.316;2023-05-23T06:00:10;94490.75;;;14.77;67.47
29197;BME280;62796;42.654;23.316;2023-05-23T06:02:42;94478.34;;;14.73;67.10
29197;BME280;62796;42.654;23.316;2023-05-23T06:05:09;94473.19;;;14.88;66.76
29197;BME280;62796;42.654;23.316;2023-05-23T06:07:39;94471.81;;;15.06;66.01
29197;BME280;62796;42.654;23.316;2023-05-23T06:10:05;94493.25;;;15.27;65.20
29197;BME280;62796;42.654;23.316;2023-05-23T06:12:34;94463.16;;;15.15;65.39
29197;BME280;62796;42.654;23.316;2023-05-23T06:15:00;94471.69;;;15.28;64.14
29197;BME280;62796;42.654;23.316;2023-05-23T06:17:26;94466.59;;;15.32;64.38
29197;BME280;62796;42.654;23.316;2023-05-23T06:19:51;94458.94;;;15.38;64.62
29197;BME280;62796;42.654;23.316;2023-05-23T06:22:17;94500.81;;;15.73;64.46
29197;BME280;62796;42.654;23.316;2023-05-23T06:24:42;94470.09;;;15.73;63.83
29197;BME280;62796;42.654;23.316;2023-05-23T06:27:08;94476.94;;;16.02;63.15
29197;BME280;62796;42.654;23.316;2023-05-23T06:29:33;94493.44;;;16.30;63.06
29197;BME280;62796;42.654;23.316;2023-05-23T06:32:01;94481.91;;;16.39;62.17
29197;BME280;62796;42.654;23.316;2023-05-23T06:34:26;94474.44;;;16.47;61.75
29197;BME280;62796;42.654;23.316;2023-05-23T06:36:52;94503.09;;;16.77;61.17
29197;BME280;62796;42.654;23.316;2023-05-23T06:39:17;94487.16;;;16.91;61.25
29197;BME280;62796;42.654;23.316;2023-05-23T06:41:42;94489.13;;;17.14;60.30
29197;BME280;62796;42.654;23.316;2023-05-23T06:44:08;94474.16;;;17.31;60.54
29197;BME280;62796;42.654;23.316;2023-05-23T06:46:33;94479.13;;;17.56;59.64
29197;BME280;62796;42.654;23.316;2023-05-23T06:48:59;94467.53;;;17.65;59.24
29197;BME280;62796;42.654;23.316;2023-05-23T06:51:24;94493.94;;;17.70;58.47
29197;BME280;62796;42.654;23.316;2023-05-23T06:53:50;94471.09;;;17.66;58.62
29197;BME280;62796;42.654;23.316;2023-05-23T06:56:15;94482.38;;;17.92;58.34
29197;BME280;62796;42.654;23.316;2023-05-23T06:58:41;94480.00;;;17.96;57.66
29197;BME280;62796;42.654;23.316;2023-05-23T07:01:06;94466.69;;;17.71;58.37
29197;BME280;62796;42.654;23.316;2023-05-23T07:03:32;94480.56;;;18.08;57.68
29197;BME280;62796;42.654;23.316;2023-05-23T07:05:57;94452.59;;;18.21;56.92
29197;BME280;62796;42.654;23.316;2023-05-23T07:08:23;94468.97;;;18.43;56.52
29197;BME280;62796;42.654;23.316;2023-05-23T07:10:49;94443.84;;;18.64;56.18
29197;BME280;62796;42.654;23.316;2023-05-23T07:13:14;94474.47;;;19.01;55.57
29197;BME280;62796;42.654;23.316;2023-05-23T07:15:39;94459.03;;;19.08;55.69
29197;BME280;62796;42.654;23.316;2023-05-23T07:18:05;94437.97;;;19.14;54.52
29197;BME280;62796;42.654;23.316;2023-05-23T07:20:33;94461.00;;;19.47;52.93
29197;BME280;62796;42.654;23.316;2023-05-23T07:22:59;94431.66;;;19.21;53.51
29197;BME280;62796;42.654;23.316;2023-05-23T07:25:25;94431.38;;;19.46;52.26
29197;BME280;62796;42.654;23.316;2023-05-23T07:27:51;94439.78;;;19.59;51.79
29197;BME280;62796;42.654;23.316;2023-05-23T07:30:19;94447.84;;;20.04;51.26
29197;BME280;62796;42.654;23.316;2023-05-23T07:32:46;94425.50;;;19.98;51.27
29197;BME280;62796;42.654;23.316;2023-05-23T07:35:12;94444.47;;;20.26;50.51
29197;BME280;62796;42.654;23.316;2023-05-23T07:37:37;94435.69;;;20.29;50.76
29197;BME280;62796;42.654;23.316;2023-05-23T07:40:04;94454.03;;;20.51;51.06
29197;BME280;62796;42.654;23.316;2023-05-23T07:42:29;94427.06;;;20.56;50.46
29197;BME280;62796;42.654;23.316;2023-05-23T07:44:55;94428.06;;;20.66;49.86
29197;BME280;62796;42.654;23.316;2023-05-23T07:47:20;94452.78;;;20.95;49.12
29197;BME280;62796;42.654;23.316;2023-05-23T07:49:46;94427.69;;;21.05;48.64
29197;BME280;62796;42.654;23.316;2023-05-23T07:52:11;94425.13;;;21.22;47.68
29197;BME280;62796;42.654;23.316;2023-05-23T07:54:37;94418.06;;;21.44;47.47
29197;BME280;62796;42.654;23.316;2023-05-23T07:57:03;94420.16;;;21.59;47.33
29197;BME280;62796;42.654;23.316;2023-05-23T07:59:28;94435.81;;;21.90;46.33
29197;BME280;62796;42.654;23.316;2023-05-23T08:01:54;94435.63;;;21.88;46.23
29197;BME280;62796;42.654;23.316;2023-05-23T08:04:20;94430.34;;;21.77;45.40
29197;BME280;62796;42.654;23.316;2023-05-23T08:06:45;94405.72;;;21.85;45.35
29197;BME280;62796;42.654;23.316;2023-05-23T08:09:11;94410.66;;;22.07;45.17
29197;BME280;62796;42.654;23.316;2023-05-23T08:11:37;94408.75;;;22.32;45.08
29197;BME280;62796;42.654;23.316;2023-05-23T08:14:02;94406.09;;;22.34;45.55
29197;BME280;62796;42.654;23.316;2023-05-23T08:16:28;94423.00;;;22.49;46.10
29197;BME280;62796;42.654;23.316;2023-05-23T08:18:53;94434.28;;;22.49;45.25
29197;BME280;62796;42.654;23.316;2023-05-23T08:21:19;94403.81;;;22.55;44.26
29197;BME280;62796;42.654;23.316;2023-05-23T08:23:44;94411.69;;;22.80;44.16
29197;BME280;62796;42.654;23.316;2023-05-23T08:26:10;94414.50;;;22.87;43.98
29197;BME280;62796;42.654;23.316;2023-05-23T08:28:35;94427.00;;;23.09;43.49
29197;BME280;62796;42.654;23.316;2023-05-23T08:31:00;94402.81;;;22.83;42.63
29197;BME280;62796;42.654;23.316;2023-05-23T08:33:26;94409.34;;;23.01;42.96
29197;BME280;62796;42.654;23.316;2023-05-23T08:35:51;94409.72;;;22.97;42.64
29197;BME280;62796;42.654;23.316;2023-05-23T08:38:17;94415.09;;;22.71;44.07
29197;BME280;62796;42.654;23.316;2023-05-23T08:40:49;94399.13;;;22.66;44.09
29197;BME280;62796;42.654;23.316;2023-05-23T08:43:16;94414.34;;;22.55;44.51
29197;BME280;62796;42.654;23.316;2023-05-23T08:45:42;94415.03;;;22.93;43.10
29197;BME280;62796;42.654;23.316;2023-05-23T08:48:10;94405.06;;;22.92;42.81
29197;BME280;62796;42.654;23.316;2023-05-23T08:50:39;94418.03;;;22.95;40.73
29197;BME280;62796;42.654;23.316;2023-05-23T08:53:07;94388.66;;;22.98;41.44
29197;BME280;62796;42.654;23.316;2023-05-23T08:55:34;94388.22;;;23.09;41.64
29197;BME280;62796;42.654;23.316;2023-05-23T08:58:02;94412.97;;;23.41;41.46
29197;BME280;62796;42.654;23.316;2023-05-23T09:00:28;94410.16;;;23.41;41.79
29197;BME280;62796;42.654;23.316;2023-05-23T09:02:54;94408.47;;;23.31;41.29
29197;BME280;62796;42.654;23.316;2023-05-23T09:05:20;94379.88;;;23.19;41.30
29197;BME280;62796;42.654;23.316;2023-05-23T09:07:47;94392.91;;;23.54;39.32
29197;BME280;62796;42.654;23.316;2023-05-23T09:10:14;94410.66;;;24.04;36.87
29197;BME280;62796;42.654;23.316;2023-05-23T09:12:41;94412.75;;;24.04;36.56
29197;BME280;62796;42.654;23.316;2023-05-23T09:15:08;94413.56;;;24.21;35.28
29197;BME280;62796;42.654;23.316;2023-05-23T09:17:34;94407.78;;;24.37;36.45
29197;BME280;62796;42.654;23.316;2023-05-23T09:20:03;94405.78;;;24.47;38.63
29197;BME280;62796;42.654;23.316;2023-05-23T09:22:34;94384.28;;;24.27;38.33
29197;BME280;62796;42.654;23.316;2023-05-23T09:25:01;94401.78;;;24.50;34.34
29197;BME280;62796;42.654;23.316;2023-05-23T09:27:26;94396.41;;;24.78;31.68
29197;BME280;62796;42.654;23.316;2023-05-23T09:29:52;94382.69;;;24.92;31.53
29197;BME280;62796;42.654;23.316;2023-05-23T09:32:19;94404.25;;;25.05;31.28
29197;BME280;62796;42.654;23.316;2023-05-23T09:35:05;94402.41;;;25.17;30.88
29197;BME280;62796;42.654;23.316;2023-05-23T09:37:36;94409.38;;;25.33;30.30
29197;BME280;62796;42.654;23.316;2023-05-23T09:40:08;94403.25;;;25.54;30.19
29197;BME280;62796;42.654;23.316;2023-05-23T09:42:34;94392.16;;;25.65;29.82
29197;BME280;62796;42.654;23.316;2023-05-23T09:45:01;94369.72;;;25.60;29.29
29197;BME280;62796;42.654;23.316;2023-05-23T09:47:26;94394.31;;;25.84;28.30
29197;BME280;62796;42.654;23.316;2023-05-23T09:49:52;94364.47;;;25.83;28.95
29197;BME280;62796;42.654;23.316;2023-05-23T09:52:17;94380.38;;;26.05;29.19
29197;BME280;62796;42.654;23.316;2023-05-23T09:54:46;94385.47;;;26.07;28.94
29197;BME280;62796;42.654;23.316;2023-05-23T09:57:18;94357.09;;;26.07;28.27
29197;BME280;62796;42.654;23.316;2023-05-23T09:59:57;94375.56;;;26.25;28.01
29197;BME280;62796;42.654;23.316;2023-05-23T10:05:08;94380.78;;;26.28;26.37
29197;BME280;62796;42.654;23.316;2023-05-23T10:07:41;94364.81;;;26.33;26.36
29197;BME280;62796;42.654;23.316;2023-05-23T10:10:09;94372.28;;;26.38;26.98
29197;BME280;62796;42.654;23.316;2023-05-23T10:12:45;94373.94;;;26.41;26.87
29197;BME280;62796;42.654;23.316;2023-05-23T10:15:13;94372.47;;;26.59;25.18
29197;BME280;62796;42.654;23.316;2023-05-23T10:20:51;94352.44;;;26.48;26.45
29197;BME280;62796;42.654;23.316;2023-05-23T10:23:18;94357.66;;;26.70;26.19
29197;BME280;62796;42.654;23.316;2023-05-23T10:25:44;94366.19;;;26.70;26.38
29197;BME280;62796;42.654;23.316;2023-05-23T10:28:12;94365.00;;;26.73;26.92
29197;BME280;62796;42.654;23.316;2023-05-23T10:30:38;94376.09;;;26.88;26.40
29197;BME280;62796;42.654;23.316;2023-05-23T10:33:05;94363.22;;;26.78;26.22
29197;BME280;62796;42.654;23.316;2023-05-23T10:35:46;94362.66;;;26.79;24.38
29197;BME280;62796;42.654;23.316;2023-05-23T10:45:44;94319.72;;;26.66;24.90
29197;BME280;62796;42.654;23.316;2023-05-23T10:51:07;94323.56;;;26.32;25.22
29197;BME280;62796;42.654;23.316;2023-05-23T10:53:38;94331.50;;;26.33;24.98
29197;BME280;62796;42.654;23.316;2023-05-23T10:56:07;94338.66;;;26.34;25.82
29197;BME280;62796;42.654;23.316;2023-05-23T10:58:34;94321.03;;;26.46;24.25
29197;BME280;62796;42.654;23.316;2023-05-23T11:01:03;94345.41;;;26.58;24.40
29197;BME280;62796;42.654;23.316;2023-05-23T11:03:32;94332.72;;;26.69;24.26
29197;BME280;62796;42.654;23.316;2023-05-23T11:05:58;94333.34;;;26.86;24.87
29197;BME280;62796;42.654;23.316;2023-05-23T11:08:24;94320.78;;;26.89;24.20
29197;BME280;62796;42.654;23.316;2023-05-23T11:11:00;94342.31;;;27.02;23.62
29197;BME280;62796;42.654;23.316;2023-05-23T11:16:30;94337.19;;;27.29;23.78
29197;BME280;62796;42.654;23.316;2023-05-23T11:21:43;94331.03;;;27.52;22.56
29197;BME280;62796;42.654;23.316;2023-05-23T11:24:09;94328.31;;;27.54;21.67
29197;BME280;62796;42.654;23.316;2023-05-23T11:26:35;94333.47;;;27.27;22.82
29197;BME280;62796;42.654;23.316;2023-05-23T11:29:00;94327.59;;;27.34;22.56
29197;BME280;62796;42.654;23.316;2023-05-23T11:31:28;94326.53;;;27.39;22.84
29197;BME280;62796;42.654;23.316;2023-05-23T11:33:54;94323.88;;;27.32;23.06
29197;BME280;62796;42.654;23.316;2023-05-23T11:36:21;94310.03;;;26.88;23.77
29197;BME280;62796;42.654;23.316;2023-05-23T11:38:49;94308.34;;;26.56;24.41
29197;BME280;62796;42.654;23.316;2023-05-23T11:41:17;94319.44;;;26.90;23.94
29197;BME280;62796;42.654;23.316;2023-05-23T11:43:50;94308.34;;;26.94;24.12
29197;BME280;62796;42.654;23.316;2023-05-23T11:46:15;94303.53;;;27.26;23.45
29197;BME280;62796;42.654;23.316;2023-05-23T11:48:47;94307.13;;;27.17;23.84
29197;BME280;62796;42.654;23.316;2023-05-23T11:51:14;94307.38;;;27.40;22.68
29197;BME280;62796;42.654;23.316;2023-05-23T11:53:40;94305.31;;;27.31;23.44
29197;BME280;62796;42.654;23.316;2023-05-23T11:56:16;94302.88;;;27.37;22.56
29197;BME280;62796;42.654;23.316;2023-05-23T11:58:42;94301.16;;;27.72;22.01
29197;BME280;62796;42.654;23.316;2023-05-23T12:01:10;94289.25;;;27.85;22.16
29197;BME280;62796;42.654;23.316;2023-05-23T12:03:46;94298.09;;;27.89;22.55
29197;BME280;62796;42.654;23.316;2023-05-23T12:06:17;94291.75;;;28.00;21.93
29197;BME280;62796;42.654;23.316;2023-05-23T12:08:43;94295.03;;;28.07;21.85
29197;BME280;62796;42.654;23.316;2023-05-23T12:11:09;94276.44;;;28.06;22.40
29197;BME280;62796;42.654;23.316;2023-05-23T12:13:36;94282.28;;;28.08;22.60
29197;BME280;62796;42.654;23.316;2023-05-23T12:16:02;94271.94;;;28.02;21.89
29197;BME280;62796;42.654;23.316;2023-05-23T12:18:32;94280.47;;;28.02;21.43
29197;BME280;62796;42.654;23.316;2023-05-23T12:21:02;94286.50;;;28.07;21.45
29197;BME280;62796;42.654;23.316;2023-05-23T12:23:30;94279.84;;;28.14;21.88
29197;BME280;62796;42.654;23.316;2023-05-23T12:25:55;94264.50;;;27.97;21.86
29197;BME280;62796;42.654;23.316;2023-05-23T12:28:36;94242.91;;;27.73;22.74
29197;BME280;62796;42.654;23.316;2023-05-23T12:33:42;94267.09;;;26.93;23.63
29197;BME280;62796;42.654;23.316;2023-05-23T12:36:09;94244.19;;;26.91;22.57
29197;BME280;62796;42.654;23.316;2023-05-23T12:38:35;94260.47;;;27.01;23.34
29197;BME280;62796;42.654;23.316;2023-05-23T12:41:18;94270.81;;;26.96;22.85
29197;BME280;62796;42.654;23.316;2023-05-23T12:43:55;94243.47;;;26.81;23.18
29197;BME280;62796;42.654;23.316;2023-05-23T12:46:24;94255.34;;;27.18;22.43
29197;BME280;62796;42.654;23.316;2023-05-23T12:48:50;94249.75;;;27.39;22.94
29197;BME280;62796;42.654;23.316;2023-05-23T12:51:17;94234.00;;;27.48;23.20
29197;BME280;62796;42.654;23.316;2023-05-23T12:53:43;94211.56;;;27.52;22.58
29197;BME280;62796;42.654;23.316;2023-05-23T12:56:08;94228.97;;;27.77;22.43
29197;BME280;62796;42.654;23.316;2023-05-23T12:58:34;94245.34;;;27.58;22.67
29197;BME280;62796;42.654;23.316;2023-05-23T13:01:00;94238.50;;;27.51;22.46
29197;BME280;62796;42.654;23.316;2023-05-23T13:03:27;94229.69;;;27.37;22.33
29197;BME280;62796;42.654;23.316;2023-05-23T13:05:55;94230.16;;;27.34;21.18
29197;BME280;62796;42.654;23.316;2023-05-23T13:08:22;94230.44;;;27.38;21.43
29197;BME280;62796;42.654;23.316;2023-05-23T13:10:47;94228.50;;;26.71;20.94
29197;BME280;62796;42.654;23.316;2023-05-23T13:13:13;94225.81;;;26.92;20.72
29197;BME280;62796;42.654;23.316;2023-05-23T13:15:39;94221.88;;;26.98;20.22
29197;BME280;62796;42.654;23.316;2023-05-23T13:18:05;94203.69;;;26.81;20.77
29197;BME280;62796;42.654;23.316;2023-05-23T13:20:31;94230.00;;;26.72;20.64
29197;BME280;62796;42.654;23.316;2023-05-23T13:22:57;94225.78;;;26.73;20.79
29197;BME280;62796;42.654;23.316;2023-05-23T13:25:23;94219.88;;;26.31;21.56
29197;BME280;62796;42.654;23.316;2023-05-23T13:27:49;94207.00;;;26.49;21.78